createdAt,value
2023-05-24T00:00:36.891Z,86
2023-05-24T00:01:51.290Z,86
2023-05-24T00:03:05.617Z,86.1
2023-05-24T00:04:19.901Z,86.2
2023-05-24T00:05:34.189Z,86.3
2023-05-24T00:06:48.593Z,85.9
2023-05-24T00:08:02.905Z,85.8
2023-05-24T00:09:17.182Z,86.3
2023-05-24T00:10:31.477Z,86.3
2023-05-24T00:11:45.887Z,85.9
2023-05-24T00:13:00.202Z,86.4
2023-05-24T00:14:14.482Z,86.5
2023-05-24T00:15:28.766Z,86.5
2023-05-24T00:16:43.180Z,86.5
2023-05-24T00:17:57.496Z,86.5
2023-05-24T00:19:11.776Z,86.4
2023-05-24T00:20:26.051Z,86.4
2023-05-24T00:21:40.469Z,86.4
2023-05-24T00:22:54.785Z,86.7
2023-05-24T00:24:09.064Z,86.6
2023-05-24T00:25:23.481Z,86.7
2023-05-24T00:26:37.870Z,86.2
2023-05-24T00:27:52.209Z,86.7
2023-05-24T00:29:06.481Z,87.5
2023-05-24T00:30:20.759Z,87.7
2023-05-24T00:31:35.175Z,87.9
2023-05-24T00:32:49.487Z,88.1
2023-05-24T00:34:03.781Z,88.4
2023-05-24T00:35:18.048Z,88.5
2023-05-24T00:36:32.465Z,88.7
2023-05-24T00:37:46.784Z,88.9
2023-05-24T00:39:01.058Z,88.7
2023-05-24T00:40:15.348Z,88.4
2023-05-24T00:41:29.751Z,88.5
2023-05-24T00:42:44.085Z,88.6
2023-05-24T00:43:58.357Z,88.5
2023-05-24T00:45:12.759Z,88.2
2023-05-24T00:46:27.169Z,87.8
2023-05-24T00:47:41.498Z,88.3
2023-05-24T00:48:55.772Z,88.9
2023-05-24T00:50:10.060Z,88.8
2023-05-24T00:51:24.466Z,88.3
2023-05-24T00:52:38.787Z,88.3
2023-05-24T00:53:53.067Z,88.7
2023-05-24T00:55:07.342Z,89.1
2023-05-24T00:56:21.758Z,88.9
2023-05-24T00:57:36.085Z,88.7
2023-05-24T00:58:50.000Z,88.7
2023-05-24T01:00:04.630Z,88.8
2023-05-24T01:01:19.045Z,88.8
2023-05-24T01:02:33.365Z,88.7
2023-05-24T01:03:47.657Z,88.9
2023-05-24T01:05:01.928Z,89.1
2023-05-24T01:06:16.345Z,89.3
2023-05-24T01:07:30.653Z,89.4
2023-05-24T01:08:44.937Z,89.2
2023-05-24T01:09:59.347Z,89.4
2023-05-24T01:11:13.744Z,89.6
2023-05-24T01:12:28.067Z,89.7
2023-05-24T01:13:42.357Z,89.6
2023-05-24T01:14:56.637Z,89.6
2023-05-24T01:16:11.051Z,89.4
2023-05-24T01:17:25.374Z,89.5
2023-05-24T01:18:39.644Z,89.6
2023-05-24T01:19:53.931Z,89.5
2023-05-24T01:21:08.344Z,89.8
2023-05-24T01:22:22.663Z,90.5
2023-05-24T01:23:36.944Z,90.6
2023-05-24T01:24:51.230Z,90.9
2023-05-24T01:26:05.635Z,90.7
2023-05-24T01:27:19.951Z,91.2
2023-05-24T01:28:34.236Z,91.6
2023-05-24T01:29:48.522Z,91.6
2023-05-24T01:31:02.917Z,92.1
2023-05-24T01:32:17.241Z,92.5
2023-05-24T01:33:31.523Z,92.5
2023-05-24T01:34:45.927Z,92.1
2023-05-24T01:36:00.333Z,92.3
2023-05-24T01:37:14.653Z,92.1
2023-05-24T01:38:28.939Z,92
2023-05-24T01:39:43.212Z,92.1
2023-05-24T01:40:57.634Z,92.4
2023-05-24T01:42:11.946Z,92.4
2023-05-24T01:43:26.236Z,92.4
2023-05-24T01:44:40.520Z,92.2
2023-05-24T01:45:54.924Z,92
2023-05-24T01:47:09.236Z,92
2023-05-24T01:48:23.530Z,92.4
2023-05-24T01:49:37.806Z,92.5
2023-05-24T01:50:52.219Z,92.6
2023-05-24T01:52:06.540Z,92.4
2023-05-24T01:53:20.826Z,92
2023-05-24T01:54:35.106Z,92.1
2023-05-24T01:55:49.503Z,92.4
2023-05-24T01:57:03.820Z,93
2023-05-24T01:58:18.118Z,93.1
2023-05-24T01:59:32.384Z,93.3
2023-05-24T02:00:46.796Z,93.2
2023-05-24T02:02:01.125Z,93.5
2023-05-24T02:03:15.409Z,93.5
2023-05-24T02:04:29.815Z,93.5
2023-05-24T02:05:44.204Z,93.6
2023-05-24T02:06:58.532Z,93.6
2023-05-24T02:08:12.808Z,93.2
2023-05-24T02:09:27.090Z,92.8
2023-05-24T02:10:41.512Z,93.1
2023-05-24T02:11:55.822Z,93.2
2023-05-24T02:13:10.102Z,93.2
2023-05-24T02:14:24.380Z,93.3
2023-05-24T02:15:38.787Z,93.1
2023-05-24T02:16:53.121Z,92.8
2023-05-24T02:18:07.407Z,92.7
2023-05-24T02:19:21.677Z,93
2023-05-24T02:20:36.096Z,93.3
2023-05-24T02:21:50.423Z,93.4
2023-05-24T02:23:04.689Z,93.5
2023-05-24T02:24:19.099Z,93.9
2023-05-24T02:25:33.507Z,94.2
2023-05-24T02:26:47.839Z,94.2
2023-05-24T02:28:02.110Z,94.2
2023-05-24T02:29:16.388Z,94.1
2023-05-24T02:30:30.812Z,94.1
2023-05-24T02:31:45.126Z,94.3
2023-05-24T02:32:59.413Z,94.1
2023-05-24T02:34:13.730Z,94
2023-05-24T02:35:28.011Z,93.7
2023-05-24T02:36:42.426Z,93.6
2023-05-24T02:37:56.745Z,93.9
2023-05-24T02:39:10.982Z,94.1
2023-05-24T02:40:25.206Z,94.2
2023-05-24T02:41:39.557Z,94.4
2023-05-24T02:42:53.849Z,94.9
2023-05-24T02:44:08.096Z,95.4
2023-05-24T02:45:22.368Z,95.6
2023-05-24T02:46:36.606Z,95.5
2023-05-24T02:47:50.829Z,95
2023-05-24T02:49:05.118Z,94.7
2023-05-24T02:50:19.355Z,94.6
2023-05-24T02:51:33.582Z,95
2023-05-24T02:52:47.823Z,95
2023-05-24T02:54:02.053Z,95.3
2023-05-24T02:55:16.343Z,95.5
2023-05-24T02:56:30.596Z,95.7
2023-05-24T02:57:44.814Z,95.9
2023-05-24T02:58:59.154Z,96.4
2023-05-24T03:00:13.399Z,96.8
2023-05-24T03:01:27.694Z,96.7
2023-05-24T03:02:41.927Z,96.8
2023-05-24T03:03:56.165Z,96.5
2023-05-24T03:05:10.389Z,96.2
2023-05-24T03:06:24.604Z,95.9
2023-05-24T03:07:38.919Z,96
2023-05-24T03:08:53.154Z,95.7
2023-05-24T03:10:07.373Z,95.7
2023-05-24T03:11:21.606Z,95.9
2023-05-24T03:12:35.836Z,95.8
2023-05-24T03:13:50.143Z,95.7
2023-05-24T03:15:04.382Z,95.7
2023-05-24T03:16:18.722Z,95.6
2023-05-24T03:17:32.956Z,95.4
2023-05-24T03:18:47.175Z,95.6
2023-05-24T03:20:01.473Z,95.7
2023-05-24T03:21:15.710Z,95.6
2023-05-24T03:22:29.946Z,95.8
2023-05-24T03:23:44.178Z,96
2023-05-24T03:24:58.399Z,96.3
2023-05-24T03:26:12.696Z,96.4
2023-05-24T03:27:26.937Z,96.2
2023-05-24T03:28:41.169Z,96.4
2023-05-24T03:29:55.400Z,96.3
2023-05-24T03:31:09.628Z,96.2
2023-05-24T03:32:23.921Z,96
2023-05-24T03:33:38.167Z,95.9
2023-05-24T03:34:52.393Z,96.1
2023-05-24T03:36:06.611Z,95.9
2023-05-24T03:37:20.843Z,95.9
2023-05-24T03:38:35.148Z,95.8
2023-05-24T03:39:49.395Z,95.9
2023-05-24T03:41:03.743Z,96.2
2023-05-24T03:42:17.967Z,96.4
2023-05-24T03:43:32.184Z,96.5
2023-05-24T03:44:46.496Z,96.5
2023-05-24T03:46:00.730Z,96.5
2023-05-24T03:47:14.962Z,96.5
2023-05-24T03:48:29.184Z,96.5
2023-05-24T03:49:43.418Z,96.4
2023-05-24T03:50:57.704Z,96.4
2023-05-24T03:52:11.957Z,96.5
2023-05-24T03:53:26.188Z,96.2
2023-05-24T03:54:40.409Z,95.9
2023-05-24T03:55:54.626Z,95.6
2023-05-24T03:57:08.937Z,95.5
2023-05-24T03:58:23.166Z,95.5
2023-05-24T03:59:37.406Z,95.6
2023-05-24T04:00:51.630Z,96.1
2023-05-24T04:02:05.849Z,96.1
2023-05-24T04:03:20.161Z,95.7
2023-05-24T04:04:34.390Z,95.4
2023-05-24T04:05:48.753Z,95.2
2023-05-24T04:08:17.190Z,95.4
2023-05-24T04:09:31.503Z,95.5
2023-05-24T04:10:45.739Z,95.3
2023-05-24T04:11:59.960Z,95
2023-05-24T04:13:14.188Z,95.3
2023-05-24T04:14:28.417Z,95.4
2023-05-24T04:15:42.723Z,95.4
2023-05-24T04:16:56.969Z,94.9
2023-05-24T04:18:11.180Z,94.4
2023-05-24T04:19:25.416Z,94.1
2023-05-24T04:20:39.633Z,93.6
2023-05-24T04:23:08.191Z,93.7
2023-05-24T04:24:22.402Z,93.4
2023-05-24T04:25:36.763Z,93.2
2023-05-24T04:26:50.996Z,93.1
2023-05-24T04:28:05.285Z,93.4
2023-05-24T04:29:19.535Z,93.3
2023-05-24T04:30:33.750Z,93.2
2023-05-24T04:31:47.972Z,93
2023-05-24T04:33:02.210Z,93.2
2023-05-24T04:34:16.505Z,93
2023-05-24T04:35:30.743Z,92.8
2023-05-24T04:36:44.980Z,92.7
2023-05-24T04:37:59.322Z,93
2023-05-24T04:39:13.548Z,93.3
2023-05-24T04:40:27.855Z,92.9
2023-05-24T04:41:42.109Z,92.7
2023-05-24T04:42:56.320Z,92.7
2023-05-24T04:44:10.544Z,93
2023-05-24T04:45:24.786Z,93.4
2023-05-24T04:46:39.084Z,93.5
2023-05-24T04:47:53.329Z,93.8
2023-05-24T04:49:07.537Z,93.5
2023-05-24T04:50:21.773Z,93.4
2023-05-24T04:51:36.003Z,93.7
2023-05-24T04:52:50.306Z,93.8
2023-05-24T04:54:04.537Z,93.2
2023-05-24T04:55:18.765Z,92.9
2023-05-24T04:56:33.000Z,92.7
2023-05-24T04:57:47.221Z,93.1
2023-05-24T04:59:01.520Z,93
2023-05-24T05:00:15.759Z,92.9
2023-05-24T05:01:29.992Z,92.4
2023-05-24T05:02:44.226Z,92.3
2023-05-24T05:03:58.452Z,92.2
2023-05-24T05:05:12.748Z,92.4
2023-05-24T05:06:26.986Z,92.6
2023-05-24T05:07:41.219Z,92.2
2023-05-24T05:08:55.438Z,92.1
2023-05-24T05:10:09.797Z,92.1
2023-05-24T05:11:24.094Z,91.5
2023-05-24T05:12:38.334Z,90.9
2023-05-24T05:15:06.784Z,90.7
2023-05-24T05:16:21.004Z,91.3
2023-05-24T05:17:35.301Z,91.5
2023-05-24T05:18:49.559Z,91.3
2023-05-24T05:20:03.773Z,90.4
2023-05-24T05:21:17.999Z,89.9
2023-05-24T05:22:32.233Z,89.5
2023-05-24T05:23:46.535Z,90.2
2023-05-24T05:25:00.769Z,90.2
2023-05-24T05:26:15.000Z,90
2023-05-24T05:27:29.229Z,90
2023-05-24T05:28:43.442Z,90
2023-05-24T05:29:57.746Z,90.2
2023-05-24T05:31:11.987Z,89.4
2023-05-24T05:32:26.213Z,89.8
2023-05-24T05:33:40.451Z,89.3
2023-05-24T05:34:54.795Z,89.9
2023-05-24T05:36:09.085Z,89.2
2023-05-24T05:37:23.342Z,89.5
2023-05-24T05:38:37.567Z,89.7
2023-05-24T05:39:51.780Z,89.2
2023-05-24T05:41:06.013Z,89.3
2023-05-24T05:42:20.318Z,88.9
2023-05-24T05:43:34.568Z,89.3
2023-05-24T05:44:48.793Z,89.3
2023-05-24T05:46:03.012Z,88.8
2023-05-24T05:47:17.228Z,88.3
2023-05-24T05:48:31.543Z,88.1
2023-05-24T05:49:45.785Z,88.1
2023-05-24T05:50:59.996Z,88.4
2023-05-24T05:52:14.232Z,88.7
2023-05-24T05:53:28.453Z,88.5
2023-05-24T05:54:42.754Z,87.1
2023-05-24T05:55:57.006Z,87.2
2023-05-24T05:57:11.222Z,87.4
2023-05-24T05:58:25.450Z,87.2
2023-05-24T05:59:39.677Z,85.7
2023-05-24T06:00:53.971Z,86
2023-05-24T06:02:08.217Z,85.4
2023-05-24T06:04:36.673Z,85.6
2023-05-24T06:05:50.905Z,85.7
2023-05-24T06:07:05.196Z,85.8
2023-05-24T06:08:19.445Z,85.6
2023-05-24T06:09:33.658Z,85.7
2023-05-24T06:10:47.897Z,86
2023-05-24T06:12:02.111Z,85.1
2023-05-24T06:13:16.422Z,85.1
2023-05-24T06:14:30.657Z,85.3
2023-05-24T06:15:44.880Z,85.6
2023-05-24T06:16:59.111Z,84.6
2023-05-24T06:18:13.336Z,83.6
2023-05-24T06:19:27.642Z,83.6
2023-05-24T06:20:41.936Z,83.8
2023-05-24T06:21:55.276Z,84.5
2023-05-24T06:23:08.579Z,83.8
2023-05-24T06:24:22.815Z,85.8
2023-05-24T06:25:37.047Z,86
2023-05-24T06:26:51.265Z,85.8
2023-05-24T06:28:05.492Z,86.5
2023-05-24T06:29:19.784Z,85.8
2023-05-24T06:30:34.027Z,86.4
2023-05-24T06:31:48.264Z,85.6
2023-05-24T06:33:02.477Z,85.2
2023-05-24T06:34:16.721Z,85.5
2023-05-24T06:35:31.009Z,85.3
2023-05-24T06:37:59.486Z,84.8
2023-05-24T06:39:13.717Z,83
2023-05-24T06:40:27.925Z,82.4
2023-05-24T06:41:42.233Z,81.7
2023-05-24T06:42:56.478Z,82.8
2023-05-24T06:44:10.713Z,82.6
2023-05-24T06:45:24.924Z,81.7
2023-05-24T06:46:39.157Z,81.9
2023-05-24T06:47:53.466Z,81.8
2023-05-24T06:49:07.706Z,81.2
2023-05-24T06:50:21.920Z,80.4
2023-05-24T06:51:36.153Z,80.2
2023-05-24T06:54:04.732Z,79.3
2023-05-24T06:55:19.011Z,79.6
2023-05-24T06:56:32.316Z,79.6
2023-05-24T06:57:46.545Z,78.8
2023-05-24T06:59:00.851Z,78.5
2023-05-24T07:00:15.091Z,78
2023-05-24T07:01:29.317Z,78.4
2023-05-24T07:02:43.527Z,77.8
2023-05-24T07:03:57.766Z,77
2023-05-24T07:05:12.061Z,77.1
2023-05-24T07:06:26.301Z,77.7
2023-05-24T07:07:40.521Z,76.2
2023-05-24T07:08:54.758Z,75.2
2023-05-24T07:10:08.981Z,73.4
2023-05-24T07:11:23.289Z,74
2023-05-24T07:12:37.531Z,74
2023-05-24T07:13:51.743Z,73.8
2023-05-24T07:15:05.978Z,75
2023-05-24T07:16:20.204Z,77
2023-05-24T07:17:34.511Z,75.5
2023-05-24T07:18:48.737Z,76.8
2023-05-24T07:20:02.962Z,75.3
2023-05-24T07:21:17.191Z,76.9
2023-05-24T07:22:31.423Z,78.1
2023-05-24T07:23:45.724Z,77.2
2023-05-24T07:24:59.961Z,76.4
2023-05-24T07:26:14.199Z,77.6
2023-05-24T07:27:28.479Z,77
2023-05-24T07:28:41.814Z,77.4
2023-05-24T07:29:56.093Z,75.8
2023-05-24T07:31:09.376Z,76.8
2023-05-24T07:32:23.618Z,76.3
2023-05-24T07:33:37.914Z,76
2023-05-24T07:34:52.151Z,76.1
2023-05-24T07:36:06.386Z,76.7
2023-05-24T07:37:20.599Z,76.8
2023-05-24T07:38:34.827Z,76.5
2023-05-24T07:39:49.135Z,76.4
2023-05-24T07:41:03.383Z,77
2023-05-24T07:42:17.597Z,76.5
2023-05-24T07:43:31.820Z,74.5
2023-05-24T07:44:46.053Z,75.1
2023-05-24T07:46:00.350Z,74.5
2023-05-24T07:47:14.603Z,72.7
2023-05-24T07:48:28.817Z,72.6
2023-05-24T07:49:43.055Z,73.8
2023-05-24T07:50:57.276Z,74.3
2023-05-24T07:52:11.577Z,74.4
2023-05-24T07:53:25.823Z,74.1
2023-05-24T07:54:40.047Z,73.8
2023-05-24T07:55:54.277Z,73
2023-05-24T07:57:08.501Z,73.6
2023-05-24T07:58:22.801Z,72.6
2023-05-24T07:59:37.035Z,72.8
2023-05-24T08:02:05.553Z,70.3
2023-05-24T08:03:18.871Z,69.2
2023-05-24T08:04:33.166Z,70
2023-05-24T08:05:46.452Z,69.4
2023-05-24T08:07:00.690Z,69.3
2023-05-24T08:08:14.989Z,70.2
2023-05-24T08:09:29.223Z,69.6
2023-05-24T08:10:43.453Z,69.9
2023-05-24T08:11:57.678Z,69.4
2023-05-24T08:13:11.903Z,69.8
2023-05-24T08:14:26.217Z,68.9
2023-05-24T08:15:40.450Z,68.8
2023-05-24T08:16:54.673Z,69.7
2023-05-24T08:18:08.896Z,70.7
2023-05-24T08:20:37.432Z,71.4
2023-05-24T08:21:51.677Z,72.7
2023-05-24T08:23:05.892Z,73.2
2023-05-24T08:24:20.124Z,73.6
2023-05-24T08:25:34.339Z,71.8
2023-05-24T08:26:48.640Z,72
2023-05-24T08:28:02.880Z,70.6
2023-05-24T08:29:17.123Z,71.9
2023-05-24T08:30:31.347Z,70.9
2023-05-24T08:31:45.566Z,71
2023-05-24T08:32:59.862Z,70.8
2023-05-24T08:35:28.342Z,68.7
2023-05-24T08:36:42.616Z,69.1
2023-05-24T08:37:56.898Z,68.4
2023-05-24T08:40:25.488Z,66.6
2023-05-24T08:41:39.773Z,67.2
2023-05-24T08:42:53.072Z,63.3
2023-05-24T08:44:07.375Z,64.3
2023-05-24T08:45:21.603Z,64.3
2023-05-24T08:46:35.832Z,64.7
2023-05-24T08:47:50.068Z,64.5
2023-05-24T08:49:04.280Z,65.1
2023-05-24T08:50:18.583Z,65.4
2023-05-24T08:51:32.833Z,65.1
2023-05-24T08:52:47.053Z,64
2023-05-24T08:54:01.281Z,63.5
2023-05-24T08:55:15.503Z,64.5
2023-05-24T08:56:29.810Z,68.2
2023-05-24T08:57:44.056Z,66.2
2023-05-24T08:58:58.266Z,66.6
2023-05-24T09:00:12.491Z,68
2023-05-24T09:01:26.729Z,67
2023-05-24T09:02:41.017Z,65.9
2023-05-24T09:05:09.494Z,64.9
2023-05-24T09:06:23.725Z,64.2
2023-05-24T09:07:37.944Z,63.7
2023-05-24T09:08:52.241Z,63.3
2023-05-24T09:10:06.485Z,61.6
2023-05-24T09:11:20.716Z,60.2
2023-05-24T09:12:34.947Z,57.8
2023-05-24T09:13:49.233Z,58
2023-05-24T09:15:03.526Z,55.1
2023-05-24T09:16:17.811Z,56.3
2023-05-24T09:17:31.164Z,57
2023-05-24T09:18:44.510Z,58.7
2023-05-24T09:19:58.777Z,58.3
2023-05-24T09:21:13.074Z,59.3
2023-05-24T09:22:26.365Z,59.9
2023-05-24T09:23:40.668Z,61.1
2023-05-24T09:24:54.907Z,61
2023-05-24T09:26:09.141Z,62.8
2023-05-24T09:27:23.368Z,63.7
2023-05-24T09:28:37.589Z,64.1
2023-05-24T09:29:51.882Z,66.2
2023-05-24T09:31:06.119Z,67.4
2023-05-24T09:32:20.358Z,66.8
2023-05-24T09:33:34.578Z,68.2
2023-05-24T09:34:48.815Z,69.1
2023-05-24T09:36:03.108Z,72.7
2023-05-24T09:37:17.351Z,75.6
2023-05-24T09:38:31.565Z,74.4
2023-05-24T09:39:45.808Z,72.5
2023-05-24T09:41:00.037Z,72.6
2023-05-24T09:42:14.319Z,72.8
2023-05-24T09:43:28.563Z,73.7
2023-05-24T09:44:42.791Z,71.8
2023-05-24T09:45:57.028Z,71.2
2023-05-24T09:47:11.252Z,71
2023-05-24T09:48:25.552Z,72.7
2023-05-24T09:49:39.784Z,70.8
2023-05-24T09:50:54.016Z,70.6
2023-05-24T09:52:08.247Z,72.1
2023-05-24T09:53:22.531Z,71.5
2023-05-24T09:54:36.831Z,71.1
2023-05-24T09:55:51.107Z,68.6
2023-05-24T09:57:04.414Z,68.3
2023-05-24T09:58:18.628Z,70.3
2023-05-24T09:59:32.935Z,71
2023-05-24T10:00:47.180Z,68.8
2023-05-24T10:02:01.405Z,70
2023-05-24T10:03:15.634Z,68.3
2023-05-24T10:04:29.854Z,68.2
2023-05-24T10:05:44.148Z,67.4
2023-05-24T10:06:58.389Z,67.3
2023-05-24T10:08:12.627Z,68.7
2023-05-24T10:09:26.854Z,67.1
2023-05-24T10:10:41.082Z,67.1
2023-05-24T10:11:55.374Z,68.2
2023-05-24T10:13:09.613Z,66.7
2023-05-24T10:14:23.847Z,65.7
2023-05-24T10:15:38.062Z,66.8
2023-05-24T10:16:52.303Z,66.3
2023-05-24T10:18:06.584Z,66.5
2023-05-24T10:19:20.843Z,66.8
2023-05-24T10:20:35.054Z,66.2
2023-05-24T10:21:49.295Z,65
2023-05-24T10:23:03.503Z,65.6
2023-05-24T10:24:17.812Z,65.1
2023-05-24T10:25:32.048Z,65.3
2023-05-24T10:26:46.277Z,65
2023-05-24T10:28:00.574Z,66.4
2023-05-24T10:29:13.888Z,65.9
2023-05-24T10:30:28.187Z,66.1
2023-05-24T10:31:41.482Z,66
2023-05-24T10:32:55.697Z,63.6
2023-05-24T10:34:09.999Z,64.5
2023-05-24T10:35:24.236Z,62.8
2023-05-24T10:36:38.479Z,62.8
2023-05-24T10:37:52.700Z,63.3
2023-05-24T10:39:06.918Z,61.7
2023-05-24T10:40:21.221Z,61.1
2023-05-24T10:41:35.471Z,61.6
2023-05-24T10:42:49.822Z,60
2023-05-24T10:44:04.032Z,58.9
2023-05-24T10:45:18.257Z,59.2
2023-05-24T10:46:32.571Z,57.5
2023-05-24T10:47:46.809Z,57.2
2023-05-24T10:49:01.029Z,56.2
2023-05-24T10:50:15.260Z,57.1
2023-05-24T10:51:29.482Z,57.1
2023-05-24T10:52:43.790Z,58.7
2023-05-24T10:53:58.023Z,59.2
2023-05-24T10:55:12.248Z,59.7
2023-05-24T10:56:26.482Z,59.7
2023-05-24T10:57:40.717Z,60.2
2023-05-24T10:58:55.001Z,60
2023-05-24T11:00:09.246Z,58.7
2023-05-24T11:01:23.484Z,61
2023-05-24T11:02:37.845Z,63.1
2023-05-24T11:05:06.380Z,63.2
2023-05-24T11:06:20.619Z,66.2
2023-05-24T11:07:34.829Z,66
2023-05-24T11:08:49.069Z,67.1
2023-05-24T11:10:03.295Z,67.8
2023-05-24T11:11:17.586Z,67.1
2023-05-24T11:12:31.841Z,67.7
2023-05-24T11:13:46.052Z,67.5
2023-05-24T11:15:00.276Z,67.1
2023-05-24T11:16:14.515Z,68.3
2023-05-24T11:17:28.814Z,67.3
2023-05-24T11:18:43.062Z,67.2
2023-05-24T11:19:57.278Z,66.1
2023-05-24T11:21:11.501Z,64.8
2023-05-24T11:22:25.723Z,66.3
2023-05-24T11:23:40.036Z,65.3
2023-05-24T11:24:54.268Z,64.7
2023-05-24T11:26:08.492Z,66.2
2023-05-24T11:27:22.725Z,65.2
2023-05-24T11:28:36.942Z,66
2023-05-24T11:29:51.249Z,65.3
2023-05-24T11:31:05.485Z,62.4
2023-05-24T11:32:19.716Z,68.1
2023-05-24T11:33:33.995Z,66.1
2023-05-24T11:34:47.297Z,67.3
2023-05-24T11:36:01.536Z,65.9
2023-05-24T11:37:15.756Z,65.3
2023-05-24T11:38:29.999Z,65
2023-05-24T11:39:44.219Z,65.5
2023-05-24T11:40:58.522Z,64.3
2023-05-24T11:42:12.000Z,63.9
2023-05-24T11:43:26.987Z,63.5
2023-05-24T11:44:41.204Z,63.5
2023-05-24T11:45:55.447Z,64.6
2023-05-24T11:47:09.729Z,66.2
2023-05-24T11:48:23.974Z,67.3
2023-05-24T11:49:38.198Z,65.7
2023-05-24T11:50:52.437Z,63.7
2023-05-24T11:52:06.652Z,64.4
2023-05-24T11:53:20.954Z,63.2
2023-05-24T11:54:35.203Z,64.6
2023-05-24T11:55:49.426Z,64.9
2023-05-24T11:57:03.654Z,63.9
2023-05-24T11:58:17.878Z,64.8
2023-05-24T11:59:32.175Z,64.8
2023-05-24T12:00:46.427Z,64
2023-05-24T12:02:00.648Z,63.2
2023-05-24T12:03:14.860Z,63.1
2023-05-24T12:04:29.106Z,62.9
2023-05-24T12:05:43.465Z,63.3
2023-05-24T12:06:57.743Z,63.5
2023-05-24T12:08:11.043Z,64
2023-05-24T12:09:25.257Z,64.3
2023-05-24T12:10:39.558Z,64.6
2023-05-24T12:11:53.809Z,65
2023-05-24T12:13:08.034Z,66.2
2023-05-24T12:14:22.255Z,65.6
2023-05-24T12:15:36.478Z,64.6
2023-05-24T12:16:50.787Z,64.8
2023-05-24T12:18:05.012Z,66.2
2023-05-24T12:19:19.242Z,64.4
2023-05-24T12:20:33.475Z,65
2023-05-24T12:21:47.695Z,64.5
2023-05-24T12:23:01.997Z,64.1
2023-05-24T12:24:16.239Z,63.1
2023-05-24T12:25:30.464Z,62
2023-05-24T12:26:44.690Z,61.5
2023-05-24T12:27:58.922Z,62.3
2023-05-24T12:29:13.226Z,63.6
2023-05-24T12:30:27.469Z,62.7
2023-05-24T12:31:41.808Z,62.6
2023-05-24T12:32:56.041Z,62.9
2023-05-24T12:34:10.000Z,61.3
2023-05-24T12:35:24.552Z,64.8
2023-05-24T12:36:38.797Z,63.8
2023-05-24T12:37:53.031Z,64.2
2023-05-24T12:39:07.250Z,65.6
2023-05-24T12:40:21.482Z,63.3
2023-05-24T12:41:35.782Z,65.1
2023-05-24T12:42:50.032Z,64.3
2023-05-24T12:44:04.259Z,63.9
2023-05-24T12:45:18.480Z,66
2023-05-24T12:46:32.711Z,66
2023-05-24T12:47:47.008Z,65.9
2023-05-24T12:49:01.245Z,64.6
2023-05-24T12:50:15.462Z,65.8
2023-05-24T12:51:29.691Z,63.7
2023-05-24T12:52:43.932Z,64.1
2023-05-24T12:53:58.220Z,65.4
2023-05-24T12:55:12.463Z,64.8
2023-05-24T12:56:26.687Z,65.3
2023-05-24T12:57:40.915Z,66.3
2023-05-24T12:58:55.140Z,65.5
2023-05-24T13:00:09.452Z,65
2023-05-24T13:01:23.678Z,65.1
2023-05-24T13:02:37.912Z,66.8
2023-05-24T13:03:52.141Z,66.1
2023-05-24T13:05:06.368Z,64
2023-05-24T13:06:20.672Z,65
2023-05-24T13:07:34.902Z,64.5
2023-05-24T13:08:49.128Z,65.6
2023-05-24T13:10:03.353Z,66.5
2023-05-24T13:11:17.583Z,65.4
2023-05-24T13:12:31.883Z,67.5
2023-05-24T13:13:46.127Z,64
2023-05-24T13:15:00.354Z,63.7
2023-05-24T13:16:14.573Z,63
2023-05-24T13:17:28.853Z,63.2
2023-05-24T13:18:43.167Z,62.1
2023-05-24T13:19:57.450Z,62.2
2023-05-24T13:21:11.721Z,62.6
2023-05-24T13:22:25.017Z,62.2
2023-05-24T13:23:39.323Z,62.8
2023-05-24T13:24:53.560Z,63.8
2023-05-24T13:26:07.783Z,63.3
2023-05-24T13:27:22.017Z,63.4
2023-05-24T13:28:36.242Z,62.7
2023-05-24T13:29:50.554Z,60.9
2023-05-24T13:31:04.779Z,63.4
2023-05-24T13:32:19.005Z,64.9
2023-05-24T13:33:33.240Z,64.4
2023-05-24T13:34:47.479Z,63.9
2023-05-24T13:36:01.772Z,63.3
2023-05-24T13:37:16.011Z,63.4
2023-05-24T13:38:30.233Z,65.2
2023-05-24T13:39:44.448Z,64.8
2023-05-24T13:40:58.684Z,64.8
2023-05-24T13:42:12.987Z,65.9
2023-05-24T13:43:27.216Z,66.1
2023-05-24T13:44:41.458Z,65.9
2023-05-24T13:45:55.676Z,66.7
2023-05-24T13:47:09.911Z,67.4
2023-05-24T13:48:24.197Z,66.6
2023-05-24T13:49:38.447Z,66.6
2023-05-24T13:50:52.679Z,67
2023-05-24T13:52:06.897Z,67.2
2023-05-24T13:53:21.177Z,66.2
2023-05-24T13:54:35.000Z,67.1
2023-05-24T13:55:49.774Z,68.4
2023-05-24T13:57:03.070Z,67
2023-05-24T13:58:17.282Z,66.8
2023-05-24T13:59:31.590Z,66.4
2023-05-24T14:00:45.842Z,68.6
2023-05-24T14:02:00.065Z,68.3
2023-05-24T14:03:14.278Z,67.4
2023-05-24T14:04:28.518Z,67.5
2023-05-24T14:05:42.816Z,66.4
2023-05-24T14:06:57.050Z,67.8
2023-05-24T14:08:11.285Z,65.4
2023-05-24T14:09:25.514Z,65.7
2023-05-24T14:10:39.729Z,65.7
2023-05-24T14:11:54.027Z,65.8
2023-05-24T14:13:08.265Z,66.2
2023-05-24T14:14:22.494Z,65.6
2023-05-24T14:15:36.720Z,64.8
2023-05-24T14:16:50.945Z,64.3
2023-05-24T14:18:05.246Z,64.5
2023-05-24T14:19:19.504Z,65.1
2023-05-24T14:20:33.722Z,64.5
2023-05-24T14:21:47.945Z,64.5
2023-05-24T14:23:02.174Z,65.1
2023-05-24T14:24:16.473Z,65
2023-05-24T14:25:30.714Z,64.8
2023-05-24T14:26:44.945Z,65.7
2023-05-24T14:27:59.220Z,65.3
2023-05-24T14:29:12.531Z,66.1
2023-05-24T14:30:26.765Z,66.4
2023-05-24T14:31:40.982Z,66.4
2023-05-24T14:32:55.220Z,68.9
2023-05-24T14:34:09.439Z,68.1
2023-05-24T14:35:23.749Z,68.7
2023-05-24T14:36:37.994Z,67.2
2023-05-24T14:37:52.209Z,67.8
2023-05-24T14:39:06.435Z,66.3
2023-05-24T14:40:20.661Z,65.7
2023-05-24T14:41:34.970Z,66.7
2023-05-24T14:42:49.197Z,67.2
2023-05-24T14:44:03.428Z,66.7
2023-05-24T14:45:17.654Z,68.8
2023-05-24T14:46:31.888Z,68.5
2023-05-24T14:47:46.189Z,68.5
2023-05-24T14:49:00.423Z,67.7
2023-05-24T14:50:14.660Z,66.3
2023-05-24T14:51:28.880Z,66.3
2023-05-24T14:52:43.112Z,66.6
2023-05-24T14:53:57.405Z,66.4
2023-05-24T14:55:11.649Z,65.3
2023-05-24T14:56:25.871Z,64
2023-05-24T14:57:40.089Z,63.8
2023-05-24T14:58:54.333Z,66
2023-05-24T15:00:08.690Z,64.5
2023-05-24T15:01:22.960Z,64.5
2023-05-24T15:02:37.331Z,64.9
2023-05-24T15:03:51.570Z,65.6
2023-05-24T15:05:05.786Z,64.4
2023-05-24T15:06:20.093Z,65.6
2023-05-24T15:07:34.323Z,65.3
2023-05-24T15:08:48.548Z,65.2
2023-05-24T15:10:02.787Z,65.4
2023-05-24T15:11:17.017Z,65.6
2023-05-24T15:12:31.300Z,65.1
2023-05-24T15:13:45.559Z,65.2
2023-05-24T15:14:59.773Z,63.9
2023-05-24T15:16:14.010Z,64.3
2023-05-24T15:17:28.220Z,65.5
2023-05-24T15:18:42.535Z,65.8
2023-05-24T15:19:56.000Z,66.6
2023-05-24T15:21:11.002Z,64.7
2023-05-24T15:22:25.219Z,65.3
2023-05-24T15:23:39.456Z,65.6
2023-05-24T15:24:53.753Z,65.2
2023-05-24T15:26:07.993Z,66.6
2023-05-24T15:27:22.226Z,64.6
2023-05-24T15:28:36.439Z,65.1
2023-05-24T15:29:50.673Z,63.9
2023-05-24T15:31:04.967Z,65.5
2023-05-24T15:32:19.203Z,64.1
2023-05-24T15:33:33.497Z,65.2
2023-05-24T15:34:46.794Z,64.7
2023-05-24T15:36:01.094Z,64.4
2023-05-24T15:37:15.331Z,64.6
2023-05-24T15:38:29.550Z,63.5
2023-05-24T15:39:43.787Z,61.6
2023-05-24T15:40:58.003Z,64.6
2023-05-24T15:42:12.305Z,64.4
2023-05-24T15:43:26.556Z,62.2
2023-05-24T15:44:40.783Z,64.5
2023-05-24T15:45:55.017Z,62.4
2023-05-24T15:47:09.226Z,63.6
2023-05-24T15:48:23.530Z,65.4
2023-05-24T15:49:37.777Z,66.8
2023-05-24T15:50:52.010Z,66
2023-05-24T15:52:06.226Z,66.3
2023-05-24T15:53:20.448Z,68.7
2023-05-24T15:54:34.765Z,68.1
2023-05-24T15:55:48.986Z,66.1
2023-05-24T15:57:03.213Z,66.6
2023-05-24T15:58:17.440Z,67
2023-05-24T15:59:31.671Z,67.6
2023-05-24T16:00:45.977Z,68.1
2023-05-24T16:02:00.210Z,68.7
2023-05-24T16:03:14.444Z,68.3
2023-05-24T16:04:28.664Z,68.2
2023-05-24T16:05:42.958Z,67.5
2023-05-24T16:06:57.261Z,67.4
2023-05-24T16:08:11.532Z,67.7
2023-05-24T16:09:24.836Z,66.6
2023-05-24T16:10:39.056Z,67
2023-05-24T16:11:53.354Z,68.9
2023-05-24T16:13:07.600Z,66.7
2023-05-24T16:14:21.825Z,67.8
2023-05-24T16:15:36.059Z,66.2
2023-05-24T16:16:50.283Z,65.6
2023-05-24T16:18:04.580Z,65.2
2023-05-24T16:19:18.820Z,67.6
2023-05-24T16:20:33.047Z,65.6
2023-05-24T16:21:47.270Z,64.6
2023-05-24T16:23:01.492Z,64.8
2023-05-24T16:24:15.804Z,63.2
2023-05-24T16:25:30.043Z,63.1
2023-05-24T16:26:44.273Z,63.3
2023-05-24T16:27:58.502Z,63.5
2023-05-24T16:29:12.849Z,63.9
2023-05-24T16:30:27.131Z,64.2
2023-05-24T16:31:41.373Z,64.8
2023-05-24T16:32:55.602Z,63.6
2023-05-24T16:34:09.828Z,66.1
2023-05-24T16:35:24.062Z,62.6
2023-05-24T16:36:38.363Z,63.7
2023-05-24T16:37:52.612Z,64.2
2023-05-24T16:39:06.828Z,64.6
2023-05-24T16:40:21.052Z,65.1
2023-05-24T16:41:35.291Z,65.2
2023-05-24T16:42:49.589Z,64
2023-05-24T16:44:03.821Z,64.5
2023-05-24T16:45:18.044Z,64.5
2023-05-24T16:46:32.282Z,63.9
2023-05-24T16:47:46.496Z,65.9
2023-05-24T16:49:00.799Z,64.1